首页
METAR-TAF:

METAR-TAF

机场 :

堪薩斯城, 密蘇里州, 美国

纬度: 39-17-50N, 经度: 094-43-50W, 海拔: 312米

当前天气观测

该预报发布于1小时和0分钟前的20:53 UTC
风速10节,风向
温度 16°C
湿度 48%
气压 1024 hPa
能見度: 14.5公里
少量云层高于4000英尺
多云层高于6500英尺
阴天层高于10000英尺

METAR: KMCI 112053Z 09010KT 9SM FEW040 BKN065 OVC100 16/05 A3025 RMK AO2 SLP241 T01610050 53001

时间: 16:53 (21:53 UTC)

预报

该预报发布于4小时和27分钟前的17:26 UTC
预报有效从11日的 18点(UTC)到 12日的 18点(UTC)
风速13节,风向
能見度: 10公里
多云层高于6000英尺
从 12日的 0600点(UTC)
风速7节,风向东转东北
能見度: 10公里
散云层高于5000英尺
多云层高于10000英尺

TAF: KMCI 111726Z 1118/1218 09013KT P6SM BKN060 FM120600 06007KT P6SM SCT050 BKN100

超过4000个机场的气象观测和天气预报(METAR&TAF报告)。

可查询的气象台以黄色和红色小点在地图上表示。

将鼠标移到小点上方,可查看气象台名称。

然后点击查看天气观测和预报。

如需切换地图:点击带黑十字的绿色按钮放大地图;点击带横线的绿色按钮缩小地图;或者点击绿色箭头查看邻近地区的地图。


METAR-TAF: